sensor_id;sensor_type;location;lat;lon;timestamp;P1;durP1;ratioP1;P2;durP2;ratioP2
76656;SDS011;65576;47.714;9.414;2024-03-23T00:53:57;2.97;;;1.80;;
76656;SDS011;65576;47.714;9.414;2024-03-23T00:56:23;2.92;;;1.95;;
76656;SDS011;65576;47.714;9.414;2024-03-23T00:58:49;4.05;;;1.65;;
76656;SDS011;65576;47.714;9.414;2024-03-23T01:01:15;1.92;;;1.27;;
76656;SDS011;65576;47.714;9.414;2024-03-23T01:03:40;3.13;;;1.83;;
76656;SDS011;65576;47.714;9.414;2024-03-23T01:06:05;2.72;;;1.52;;
76656;SDS011;65576;47.714;9.414;2024-03-23T01:08:31;5.47;;;1.60;;
76656;SDS011;65576;47.714;9.414;2024-03-23T01:10:56;4.75;;;2.00;;
76656;SDS011;65576;47.714;9.414;2024-03-23T01:13:22;1.48;;;1.23;;
76656;SDS011;65576;47.714;9.414;2024-03-23T01:15:49;1.58;;;1.40;;
76656;SDS011;65576;47.714;9.414;2024-03-23T01:18:15;1.42;;;1.30;;
76656;SDS011;65576;47.714;9.414;2024-03-23T01:20:40;1.73;;;1.52;;
76656;SDS011;65576;47.714;9.414;2024-03-23T01:23:05;2.65;;;1.40;;
76656;SDS011;65576;47.714;9.414;2024-03-23T01:25:30;2.42;;;1.85;;
76656;SDS011;65576;47.714;9.414;2024-03-23T01:27:56;4.93;;;1.83;;
76656;SDS011;65576;47.714;9.414;2024-03-23T01:30:21;1.10;;;1.00;;
76656;SDS011;65576;47.714;9.414;2024-03-23T01:32:46;7.45;;;1.80;;
76656;SDS011;65576;47.714;9.414;2024-03-23T01:35:12;3.10;;;1.48;;
76656;SDS011;65576;47.714;9.414;2024-03-23T01:37:37;1.90;;;1.50;;
76656;SDS011;65576;47.714;9.414;2024-03-23T01:40:03;1.17;;;1.08;;
76656;SDS011;65576;47.714;9.414;2024-03-23T01:42:29;1.38;;;1.17;;
76656;SDS011;65576;47.714;9.414;2024-03-23T01:44:54;1.40;;;1.30;;
76656;SDS011;65576;47.714;9.414;2024-03-23T01:47:20;2.60;;;1.75;;
76656;SDS011;65576;47.714;9.414;2024-03-23T01:49:45;2.78;;;1.63;;
76656;SDS011;65576;47.714;9.414;2024-03-23T01:52:10;3.70;;;1.27;;
76656;SDS011;65576;47.714;9.414;2024-03-23T01:54:35;1.63;;;1.52;;
76656;SDS011;65576;47.714;9.414;2024-03-23T01:57:01;1.48;;;1.33;;
76656;SDS011;65576;47.714;9.414;2024-03-23T01:59:27;1.75;;;1.50;;
76656;SDS011;65576;47.714;9.414;2024-03-23T02:01:52;1.88;;;1.33;;
76656;SDS011;65576;47.714;9.414;2024-03-23T02:04:17;3.03;;;1.85;;
76656;SDS011;65576;47.714;9.414;2024-03-23T02:06:43;2.95;;;1.42;;
76656;SDS011;65576;47.714;9.414;2024-03-23T02:09:08;1.25;;;1.15;;
76656;SDS011;65576;47.714;9.414;2024-03-23T02:11:33;2.17;;;1.88;;
76656;SDS011;65576;47.714;9.414;2024-03-23T02:13:58;3.80;;;1.55;;
76656;SDS011;65576;47.714;9.414;2024-03-23T02:16:24;1.23;;;1.13;;
76656;SDS011;65576;47.714;9.414;2024-03-23T02:18:49;2.10;;;1.45;;
76656;SDS011;65576;47.714;9.414;2024-03-23T02:21:15;2.20;;;1.48;;
76656;SDS011;65576;47.714;9.414;2024-03-23T02:23:40;1.35;;;0.93;;
76656;SDS011;65576;47.714;9.414;2024-03-23T02:26:05;1.40;;;1.30;;
76656;SDS011;65576;47.714;9.414;2024-03-23T02:28:31;2.33;;;1.67;;
76656;SDS011;65576;47.714;9.414;2024-03-23T02:30:56;2.05;;;1.77;;
76656;SDS011;65576;47.714;9.414;2024-03-23T02:33:22;2.22;;;1.30;;
76656;SDS011;65576;47.714;9.414;2024-03-23T02:35:47;2.45;;;1.85;;
76656;SDS011;65576;47.714;9.414;2024-03-23T02:38:12;1.92;;;1.33;;
76656;SDS011;65576;47.714;9.414;2024-03-23T02:40:38;1.10;;;0.90;;
76656;SDS011;65576;47.714;9.414;2024-03-23T02:43:03;2.25;;;1.42;;
76656;SDS011;65576;47.714;9.414;2024-03-23T02:45:29;2.70;;;1.75;;
76656;SDS011;65576;47.714;9.414;2024-03-23T02:47:54;2.85;;;2.50;;
76656;SDS011;65576;47.714;9.414;2024-03-23T02:50:20;2.08;;;1.33;;
76656;SDS011;65576;47.714;9.414;2024-03-23T02:52:46;1.70;;;1.25;;
76656;SDS011;65576;47.714;9.414;2024-03-23T02:55:11;1.70;;;1.33;;
76656;SDS011;65576;47.714;9.414;2024-03-23T02:57:37;2.55;;;1.30;;
76656;SDS011;65576;47.714;9.414;2024-03-23T03:00:02;1.48;;;1.30;;
76656;SDS011;65576;47.714;9.414;2024-03-23T03:02:28;8.05;;;1.88;;
76656;SDS011;65576;47.714;9.414;2024-03-23T03:04:53;1.23;;;1.05;;
76656;SDS011;65576;47.714;9.414;2024-03-23T03:07:19;1.92;;;1.50;;
76656;SDS011;65576;47.714;9.414;2024-03-23T03:09:44;1.13;;;1.00;;
76656;SDS011;65576;47.714;9.414;2024-03-23T03:12:09;2.58;;;1.58;;
76656;SDS011;65576;47.714;9.414;2024-03-23T03:14:34;1.48;;;1.33;;
76656;SDS011;65576;47.714;9.414;2024-03-23T03:17:00;1.58;;;1.45;;
76656;SDS011;65576;47.714;9.414;2024-03-23T03:19:25;1.50;;;1.40;;
76656;SDS011;65576;47.714;9.414;2024-03-23T03:21:51;1.58;;;1.42;;
76656;SDS011;65576;47.714;9.414;2024-03-23T03:24:16;9.60;;;1.85;;
76656;SDS011;65576;47.714;9.414;2024-03-23T03:26:42;1.88;;;1.45;;
76656;SDS011;65576;47.714;9.414;2024-03-23T03:29:07;1.88;;;1.55;;
76656;SDS011;65576;47.714;9.414;2024-03-23T03:31:32;3.15;;;1.42;;
76656;SDS011;65576;47.714;9.414;2024-03-23T03:33:58;1.65;;;1.52;;
76656;SDS011;65576;47.714;9.414;2024-03-23T03:36:23;1.65;;;1.10;;
76656;SDS011;65576;47.714;9.414;2024-03-23T03:38:48;1.65;;;1.42;;
76656;SDS011;65576;47.714;9.414;2024-03-23T03:41:14;2.08;;;1.42;;
76656;SDS011;65576;47.714;9.414;2024-03-23T03:43:39;1.80;;;1.17;;
76656;SDS011;65576;47.714;9.414;2024-03-23T03:46:04;1.67;;;1.48;;
76656;SDS011;65576;47.714;9.414;2024-03-23T03:48:30;2.00;;;1.73;;
76656;SDS011;65576;47.714;9.414;2024-03-23T03:50:55;2.15;;;1.40;;
76656;SDS011;65576;47.714;9.414;2024-03-23T03:53:20;3.45;;;1.23;;
76656;SDS011;65576;47.714;9.414;2024-03-23T03:55:46;1.58;;;1.20;;
76656;SDS011;65576;47.714;9.414;2024-03-23T03:58:11;2.15;;;1.60;;
76656;SDS011;65576;47.714;9.414;2024-03-23T04:00:37;3.33;;;1.55;;
76656;SDS011;65576;47.714;9.414;2024-03-23T04:03:02;1.25;;;1.15;;
76656;SDS011;65576;47.714;9.414;2024-03-23T04:05:28;4.25;;;2.20;;
76656;SDS011;65576;47.714;9.414;2024-03-23T04:07:53;1.20;;;1.10;;
76656;SDS011;65576;47.714;9.414;2024-03-23T04:10:19;2.67;;;1.30;;
76656;SDS011;65576;47.714;9.414;2024-03-23T04:12:44;3.42;;;2.40;;
76656;SDS011;65576;47.714;9.414;2024-03-23T04:15:10;2.00;;;1.58;;
76656;SDS011;65576;47.714;9.414;2024-03-23T04:17:35;1.73;;;1.25;;
76656;SDS011;65576;47.714;9.414;2024-03-23T04:20:01;3.67;;;1.45;;
76656;SDS011;65576;47.714;9.414;2024-03-23T04:22:28;1.50;;;1.25;;
76656;SDS011;65576;47.714;9.414;2024-03-23T04:24:53;2.22;;;1.27;;
76656;SDS011;65576;47.714;9.414;2024-03-23T04:27:19;2.83;;;1.83;;
76656;SDS011;65576;47.714;9.414;2024-03-23T04:29:48;2.72;;;1.80;;
76656;SDS011;65576;47.714;9.414;2024-03-23T04:32:14;2.08;;;1.77;;
76656;SDS011;65576;47.714;9.414;2024-03-23T04:34:39;3.67;;;1.50;;
76656;SDS011;65576;47.714;9.414;2024-03-23T04:37:05;1.23;;;1.13;;
76656;SDS011;65576;47.714;9.414;2024-03-23T04:39:30;2.88;;;1.98;;
76656;SDS011;65576;47.714;9.414;2024-03-23T04:41:55;2.90;;;1.75;;
76656;SDS011;65576;47.714;9.414;2024-03-23T04:44:20;2.20;;;1.45;;
76656;SDS011;65576;47.714;9.414;2024-03-23T04:46:46;2.65;;;1.65;;
76656;SDS011;65576;47.714;9.414;2024-03-23T04:49:11;2.50;;;1.92;;
76656;SDS011;65576;47.714;9.414;2024-03-23T04:51:37;2.72;;;1.48;;
76656;SDS011;65576;47.714;9.414;2024-03-23T04:54:06;2.03;;;1.58;;
76656;SDS011;65576;47.714;9.414;2024-03-23T04:56:32;1.38;;;1.27;;
76656;SDS011;65576;47.714;9.414;2024-03-23T04:58:58;1.65;;;1.50;;
76656;SDS011;65576;47.714;9.414;2024-03-23T05:01:27;1.77;;;1.50;;
76656;SDS011;65576;47.714;9.414;2024-03-23T05:03:52;1.42;;;1.25;;
76656;SDS011;65576;47.714;9.414;2024-03-23T05:06:18;2.15;;;1.52;;
76656;SDS011;65576;47.714;9.414;2024-03-23T05:08:44;1.55;;;1.30;;
76656;SDS011;65576;47.714;9.414;2024-03-23T05:11:11;1.92;;;1.40;;
76656;SDS011;65576;47.714;9.414;2024-03-23T05:13:36;6.85;;;1.45;;
76656;SDS011;65576;47.714;9.414;2024-03-23T05:16:01;5.63;;;1.35;;
76656;SDS011;65576;47.714;9.414;2024-03-23T05:18:26;2.20;;;1.70;;
76656;SDS011;65576;47.714;9.414;2024-03-23T05:20:56;2.22;;;1.35;;
76656;SDS011;65576;47.714;9.414;2024-03-23T05:23:22;2.53;;;1.75;;
76656;SDS011;65576;47.714;9.414;2024-03-23T05:25:48;1.75;;;1.23;;
76656;SDS011;65576;47.714;9.414;2024-03-23T05:28:13;1.98;;;1.38;;
76656;SDS011;65576;47.714;9.414;2024-03-23T05:30:38;1.90;;;1.30;;
76656;SDS011;65576;47.714;9.414;2024-03-23T05:33:05;2.13;;;1.80;;
76656;SDS011;65576;47.714;9.414;2024-03-23T05:35:30;1.83;;;1.58;;
76656;SDS011;65576;47.714;9.414;2024-03-23T05:37:55;1.55;;;1.05;;
76656;SDS011;65576;47.714;9.414;2024-03-23T05:40:21;1.08;;;0.95;;
76656;SDS011;65576;47.714;9.414;2024-03-23T05:42:46;2.05;;;1.52;;
76656;SDS011;65576;47.714;9.414;2024-03-23T05:45:12;2.13;;;1.75;;
76656;SDS011;65576;47.714;9.414;2024-03-23T05:47:37;4.45;;;1.42;;
76656;SDS011;65576;47.714;9.414;2024-03-23T05:50:02;1.50;;;1.40;;
76656;SDS011;65576;47.714;9.414;2024-03-23T05:52:28;1.52;;;1.38;;
76656;SDS011;65576;47.714;9.414;2024-03-23T05:54:54;1.55;;;1.42;;
76656;SDS011;65576;47.714;9.414;2024-03-23T05:57:20;3.58;;;2.45;;
76656;SDS011;65576;47.714;9.414;2024-03-23T05:59:45;1.27;;;1.17;;
76656;SDS011;65576;47.714;9.414;2024-03-23T06:02:11;5.53;;;1.75;;
76656;SDS011;65576;47.714;9.414;2024-03-23T06:04:36;1.58;;;1.48;;
76656;SDS011;65576;47.714;9.414;2024-03-23T06:07:02;1.33;;;1.20;;
76656;SDS011;65576;47.714;9.414;2024-03-23T06:09:27;2.22;;;1.40;;
76656;SDS011;65576;47.714;9.414;2024-03-23T06:11:52;6.40;;;1.35;;
76656;SDS011;65576;47.714;9.414;2024-03-23T06:14:18;1.65;;;1.55;;
76656;SDS011;65576;47.714;9.414;2024-03-23T06:16:43;2.00;;;1.63;;
76656;SDS011;65576;47.714;9.414;2024-03-23T06:19:08;2.08;;;1.65;;
76656;SDS011;65576;47.714;9.414;2024-03-23T06:21:34;1.95;;;1.42;;
76656;SDS011;65576;47.714;9.414;2024-03-23T06:24:00;1.90;;;1.77;;
76656;SDS011;65576;47.714;9.414;2024-03-23T06:26:25;5.15;;;1.48;;
76656;SDS011;65576;47.714;9.414;2024-03-23T06:28:51;1.67;;;1.58;;
76656;SDS011;65576;47.714;9.414;2024-03-23T06:31:16;2.47;;;1.50;;
76656;SDS011;65576;47.714;9.414;2024-03-23T06:33:41;2.40;;;1.80;;
76656;SDS011;65576;47.714;9.414;2024-03-23T06:36:09;2.13;;;1.73;;
76656;SDS011;65576;47.714;9.414;2024-03-23T06:38:35;2.13;;;1.70;;
76656;SDS011;65576;47.714;9.414;2024-03-23T06:41:04;4.15;;;2.08;;
76656;SDS011;65576;47.714;9.414;2024-03-23T06:43:30;2.45;;;1.05;;
76656;SDS011;65576;47.714;9.414;2024-03-23T06:45:55;7.88;;;1.15;;
76656;SDS011;65576;47.714;9.414;2024-03-23T06:48:21;0.75;;;0.75;;
76656;SDS011;65576;47.714;9.414;2024-03-23T06:50:46;2.60;;;1.83;;
76656;SDS011;65576;47.714;9.414;2024-03-23T06:53:12;1.15;;;1.05;;
76656;SDS011;65576;47.714;9.414;2024-03-23T06:55:38;4.75;;;1.33;;
76656;SDS011;65576;47.714;9.414;2024-03-23T06:58:03;3.55;;;1.98;;
76656;SDS011;65576;47.714;9.414;2024-03-23T07:00:29;1.23;;;1.15;;
76656;SDS011;65576;47.714;9.414;2024-03-23T07:02:54;1.52;;;1.17;;
76656;SDS011;65576;47.714;9.414;2024-03-23T07:05:20;2.13;;;1.60;;
76656;SDS011;65576;47.714;9.414;2024-03-23T07:07:45;4.35;;;2.00;;
76656;SDS011;65576;47.714;9.414;2024-03-23T07:10:10;1.33;;;1.08;;
76656;SDS011;65576;47.714;9.414;2024-03-23T07:12:36;1.27;;;1.17;;
76656;SDS011;65576;47.714;9.414;2024-03-23T07:15:01;1.73;;;1.27;;
76656;SDS011;65576;47.714;9.414;2024-03-23T07:17:26;1.00;;;0.90;;
76656;SDS011;65576;47.714;9.414;2024-03-23T07:19:51;1.42;;;1.13;;
76656;SDS011;65576;47.714;9.414;2024-03-23T07:22:17;3.20;;;1.75;;
76656;SDS011;65576;47.714;9.414;2024-03-23T07:24:43;1.00;;;0.82;;
76656;SDS011;65576;47.714;9.414;2024-03-23T07:27:09;0.95;;;0.88;;
76656;SDS011;65576;47.714;9.414;2024-03-23T07:29:35;1.77;;;1.20;;
76656;SDS011;65576;47.714;9.414;2024-03-23T07:32:00;2.05;;;1.27;;
76656;SDS011;65576;47.714;9.414;2024-03-23T07:34:26;5.15;;;1.00;;
76656;SDS011;65576;47.714;9.414;2024-03-23T07:36:51;1.23;;;1.02;;
76656;SDS011;65576;47.714;9.414;2024-03-23T07:39:16;1.50;;;1.10;;
76656;SDS011;65576;47.714;9.414;2024-03-23T07:41:44;1.83;;;1.02;;
76656;SDS011;65576;47.714;9.414;2024-03-23T07:44:10;1.52;;;1.30;;
76656;SDS011;65576;47.714;9.414;2024-03-23T07:46:36;1.42;;;1.20;;
76656;SDS011;65576;47.714;9.414;2024-03-23T07:49:04;2.28;;;1.17;;
76656;SDS011;65576;47.714;9.414;2024-03-23T07:51:29;1.48;;;1.10;;
76656;SDS011;65576;47.714;9.414;2024-03-23T07:53:54;1.58;;;1.42;;
76656;SDS011;65576;47.714;9.414;2024-03-23T07:56:20;1.63;;;1.20;;
76656;SDS011;65576;47.714;9.414;2024-03-23T07:58:46;1.58;;;1.27;;
76656;SDS011;65576;47.714;9.414;2024-03-23T08:01:13;2.20;;;1.38;;
76656;SDS011;65576;47.714;9.414;2024-03-23T08:03:40;1.52;;;1.20;;
76656;SDS011;65576;47.714;9.414;2024-03-23T08:06:07;2.55;;;1.42;;
76656;SDS011;65576;47.714;9.414;2024-03-23T08:08:35;1.98;;;1.45;;
76656;SDS011;65576;47.714;9.414;2024-03-23T08:11:00;1.38;;;1.27;;
76656;SDS011;65576;47.714;9.414;2024-03-23T08:13:26;1.33;;;1.13;;
76656;SDS011;65576;47.714;9.414;2024-03-23T08:15:51;9.10;;;1.92;;
76656;SDS011;65576;47.714;9.414;2024-03-23T08:18:17;1.88;;;1.65;;
76656;SDS011;65576;47.714;9.414;2024-03-23T08:20:42;2.95;;;2.03;;
76656;SDS011;65576;47.714;9.414;2024-03-23T08:23:07;1.92;;;1.45;;
76656;SDS011;65576;47.714;9.414;2024-03-23T08:25:33;2.45;;;1.55;;
76656;SDS011;65576;47.714;9.414;2024-03-23T08:27:59;1.67;;;0.93;;
76656;SDS011;65576;47.714;9.414;2024-03-23T08:30:24;1.38;;;0.82;;
76656;SDS011;65576;47.714;9.414;2024-03-23T08:32:50;1.40;;;0.82;;
76656;SDS011;65576;47.714;9.414;2024-03-23T08:35:15;0.30;;;0.30;;
76656;SDS011;65576;47.714;9.414;2024-03-23T08:37:40;0.20;;;0.20;;
76656;SDS011;65576;47.714;9.414;2024-03-23T08:40:07;0.20;;;0.20;;
76656;SDS011;65576;47.714;9.414;2024-03-23T08:42:33;0.65;;;0.43;;
76656;SDS011;65576;47.714;9.414;2024-03-23T08:44:58;0.52;;;0.50;;
76656;SDS011;65576;47.714;9.414;2024-03-23T08:47:24;0.20;;;0.20;;
76656;SDS011;65576;47.714;9.414;2024-03-23T08:49:49;0.50;;;0.50;;
76656;SDS011;65576;47.714;9.414;2024-03-23T08:52:14;0.40;;;0.40;;
76656;SDS011;65576;47.714;9.414;2024-03-23T08:54:40;0.20;;;0.17;;
76656;SDS011;65576;47.714;9.414;2024-03-23T08:57:05;0.00;;;0.00;;
76656;SDS011;65576;47.714;9.414;2024-03-23T08:59:32;0.17;;;0.15;;
76656;SDS011;65576;47.714;9.414;2024-03-23T09:01:57;0.00;;;0.00;;
76656;SDS011;65576;47.714;9.414;2024-03-23T09:04:22;0.22;;;0.20;;
76656;SDS011;65576;47.714;9.414;2024-03-23T09:06:48;0.10;;;0.10;;
76656;SDS011;65576;47.714;9.414;2024-03-23T09:09:13;0.10;;;0.10;;
76656;SDS011;65576;47.714;9.414;2024-03-23T09:11:38;0.38;;;0.28;;
76656;SDS011;65576;47.714;9.414;2024-03-23T09:14:04;0.20;;;0.20;;
76656;SDS011;65576;47.714;9.414;2024-03-23T09:16:29;0.30;;;0.17;;
76656;SDS011;65576;47.714;9.414;2024-03-23T09:18:54;0.00;;;0.00;;
76656;SDS011;65576;47.714;9.414;2024-03-23T09:21:20;0.63;;;0.38;;
76656;SDS011;65576;47.714;9.414;2024-03-23T09:23:45;0.03;;;0.03;;
76656;SDS011;65576;47.714;9.414;2024-03-23T09:26:11;1.48;;;0.70;;
76656;SDS011;65576;47.714;9.414;2024-03-23T09:28:36;0.38;;;0.17;;
76656;SDS011;65576;47.714;9.414;2024-03-23T09:31:05;0.00;;;0.00;;
76656;SDS011;65576;47.714;9.414;2024-03-23T09:33:32;0.20;;;0.20;;
76656;SDS011;65576;47.714;9.414;2024-03-23T09:35:57;0.10;;;0.10;;
76656;SDS011;65576;47.714;9.414;2024-03-23T09:38:23;0.77;;;0.32;;
76656;SDS011;65576;47.714;9.414;2024-03-23T09:40:49;0.10;;;0.10;;
76656;SDS011;65576;47.714;9.414;2024-03-23T09:43:18;0.00;;;0.00;;
76656;SDS011;65576;47.714;9.414;2024-03-23T09:45:44;0.08;;;0.08;;
76656;SDS011;65576;47.714;9.414;2024-03-23T09:48:10;0.10;;;0.10;;
76656;SDS011;65576;47.714;9.414;2024-03-23T09:50:38;5.95;;;0.30;;
76656;SDS011;65576;47.714;9.414;2024-03-23T09:53:05;0.10;;;0.10;;
76656;SDS011;65576;47.714;9.414;2024-03-23T09:55:31;0.20;;;0.20;;
76656;SDS011;65576;47.714;9.414;2024-03-23T09:57:57;0.13;;;0.13;;
76656;SDS011;65576;47.714;9.414;2024-03-23T10:00:22;0.22;;;0.22;;
76656;SDS011;65576;47.714;9.414;2024-03-23T10:02:48;5.68;;;0.28;;
76656;SDS011;65576;47.714;9.414;2024-03-23T10:05:20;0.10;;;0.10;;
76656;SDS011;65576;47.714;9.414;2024-03-23T10:07:46;0.08;;;0.08;;
76656;SDS011;65576;47.714;9.414;2024-03-23T10:10:12;0.40;;;0.22;;
76656;SDS011;65576;47.714;9.414;2024-03-23T10:12:40;0.32;;;0.20;;
76656;SDS011;65576;47.714;9.414;2024-03-23T10:15:25;0.10;;;0.10;;
76656;SDS011;65576;47.714;9.414;2024-03-23T10:17:51;0.80;;;0.30;;
76656;SDS011;65576;47.714;9.414;2024-03-23T10:20:20;2.33;;;0.30;;
76656;SDS011;65576;47.714;9.414;2024-03-23T10:22:49;0.85;;;0.40;;
76656;SDS011;65576;47.714;9.414;2024-03-23T10:25:16;0.20;;;0.20;;
76656;SDS011;65576;47.714;9.414;2024-03-23T10:27:42;0.10;;;0.10;;
76656;SDS011;65576;47.714;9.414;2024-03-23T10:30:13;0.30;;;0.30;;
76656;SDS011;65576;47.714;9.414;2024-03-23T10:32:42;1.33;;;0.50;;
76656;SDS011;65576;47.714;9.414;2024-03-23T10:35:17;0.22;;;0.22;;
76656;SDS011;65576;47.714;9.414;2024-03-23T10:37:44;1.38;;;0.32;;
76656;SDS011;65576;47.714;9.414;2024-03-23T10:40:12;0.47;;;0.28;;
76656;SDS011;65576;47.714;9.414;2024-03-23T10:42:38;0.40;;;0.40;;
76656;SDS011;65576;47.714;9.414;2024-03-23T10:45:05;4.95;;;0.55;;
76656;SDS011;65576;47.714;9.414;2024-03-23T10:47:31;0.90;;;0.88;;
76656;SDS011;65576;47.714;9.414;2024-03-23T10:49:57;0.50;;;0.50;;
76656;SDS011;65576;47.714;9.414;2024-03-23T10:52:22;0.43;;;0.40;;
76656;SDS011;65576;47.714;9.414;2024-03-23T10:54:48;1.80;;;0.90;;
76656;SDS011;65576;47.714;9.414;2024-03-23T10:57:17;0.80;;;0.57;;
76656;SDS011;65576;47.714;9.414;2024-03-23T10:59:43;0.60;;;0.60;;
76656;SDS011;65576;47.714;9.414;2024-03-23T11:02:18;0.93;;;0.40;;
76656;SDS011;65576;47.714;9.414;2024-03-23T11:04:44;5.35;;;0.60;;
76656;SDS011;65576;47.714;9.414;2024-03-23T11:09:59;2.30;;;0.90;;
76656;SDS011;65576;47.714;9.414;2024-03-23T11:14:52;0.30;;;0.20;;
76656;SDS011;65576;47.714;9.414;2024-03-23T11:17:36;0.40;;;0.40;;
76656;SDS011;65576;47.714;9.414;2024-03-23T11:20:02;0.80;;;0.68;;
76656;SDS011;65576;47.714;9.414;2024-03-23T11:27:37;3.15;;;0.85;;
76656;SDS011;65576;47.714;9.414;2024-03-23T11:30:10;0.32;;;0.25;;
76656;SDS011;65576;47.714;9.414;2024-03-23T11:32:39;4.00;;;1.20;;
76656;SDS011;65576;47.714;9.414;2024-03-23T11:35:04;0.65;;;0.60;;
76656;SDS011;65576;47.714;9.414;2024-03-23T11:37:30;1.30;;;0.60;;
76656;SDS011;65576;47.714;9.414;2024-03-23T11:39:56;0.50;;;0.40;;
76656;SDS011;65576;47.714;9.414;2024-03-23T11:42:21;1.90;;;1.13;;
76656;SDS011;65576;47.714;9.414;2024-03-23T11:44:46;3.90;;;1.17;;
76656;SDS011;65576;47.714;9.414;2024-03-23T11:47:12;1.35;;;0.80;;
76656;SDS011;65576;47.714;9.414;2024-03-23T11:49:37;0.80;;;0.73;;
76656;SDS011;65576;47.714;9.414;2024-03-23T11:52:06;0.52;;;0.50;;
76656;SDS011;65576;47.714;9.414;2024-03-23T11:54:31;1.42;;;0.85;;
76656;SDS011;65576;47.714;9.414;2024-03-23T11:56:57;0.90;;;0.68;;
76656;SDS011;65576;47.714;9.414;2024-03-23T11:59:35;1.58;;;0.73;;
76656;SDS011;65576;47.714;9.414;2024-03-23T12:02:12;0.63;;;0.55;;
76656;SDS011;65576;47.714;9.414;2024-03-23T12:04:40;1.60;;;1.05;;
76656;SDS011;65576;47.714;9.414;2024-03-23T12:09:45;4.68;;;0.60;;
76656;SDS011;65576;47.714;9.414;2024-03-23T12:12:15;0.93;;;0.85;;
76656;SDS011;65576;47.714;9.414;2024-03-23T12:14:44;6.03;;;1.33;;
76656;SDS011;65576;47.714;9.414;2024-03-23T12:17:13;1.50;;;0.55;;
76656;SDS011;65576;47.714;9.414;2024-03-23T12:19:39;2.05;;;0.70;;
76656;SDS011;65576;47.714;9.414;2024-03-23T12:22:06;4.05;;;0.50;;
76656;SDS011;65576;47.714;9.414;2024-03-23T12:24:32;0.65;;;0.65;;
76656;SDS011;65576;47.714;9.414;2024-03-23T12:26:59;3.13;;;0.40;;
76656;SDS011;65576;47.714;9.414;2024-03-23T12:29:34;7.85;;;0.98;;
76656;SDS011;65576;47.714;9.414;2024-03-23T12:32:00;3.65;;;0.85;;
76656;SDS011;65576;47.714;9.414;2024-03-23T12:34:26;5.80;;;0.93;;
76656;SDS011;65576;47.714;9.414;2024-03-23T12:36:51;0.80;;;0.68;;
76656;SDS011;65576;47.714;9.414;2024-03-23T12:39:17;2.88;;;0.45;;
76656;SDS011;65576;47.714;9.414;2024-03-23T12:41:43;1.30;;;0.50;;
76656;SDS011;65576;47.714;9.414;2024-03-23T12:44:08;2.33;;;0.73;;
76656;SDS011;65576;47.714;9.414;2024-03-23T12:46:36;1.75;;;0.65;;
76656;SDS011;65576;47.714;9.414;2024-03-23T12:49:02;1.13;;;0.88;;
76656;SDS011;65576;47.714;9.414;2024-03-23T12:51:27;2.88;;;0.63;;
76656;SDS011;65576;47.714;9.414;2024-03-23T12:53:52;1.23;;;0.85;;
76656;SDS011;65576;47.714;9.414;2024-03-23T12:56:17;1.58;;;0.73;;
76656;SDS011;65576;47.714;9.414;2024-03-23T12:58:43;7.07;;;0.80;;
76656;SDS011;65576;47.714;9.414;2024-03-23T13:01:09;2.45;;;0.63;;
76656;SDS011;65576;47.714;9.414;2024-03-23T13:03:34;0.88;;;0.38;;
76656;SDS011;65576;47.714;9.414;2024-03-23T13:05:59;0.80;;;0.73;;
76656;SDS011;65576;47.714;9.414;2024-03-23T13:08:25;0.50;;;0.50;;
76656;SDS011;65576;47.714;9.414;2024-03-23T13:10:53;2.85;;;0.40;;
76656;SDS011;65576;47.714;9.414;2024-03-23T13:13:18;3.40;;;0.47;;
76656;SDS011;65576;47.714;9.414;2024-03-23T13:15:49;0.30;;;0.30;;
76656;SDS011;65576;47.714;9.414;2024-03-23T13:18:15;0.30;;;0.25;;
76656;SDS011;65576;47.714;9.414;2024-03-23T13:20:40;0.03;;;0.03;;
76656;SDS011;65576;47.714;9.414;2024-03-23T13:23:05;0.28;;;0.28;;
76656;SDS011;65576;47.714;9.414;2024-03-23T13:25:31;0.30;;;0.30;;
76656;SDS011;65576;47.714;9.414;2024-03-23T13:27:56;1.88;;;0.50;;
76656;SDS011;65576;47.714;9.414;2024-03-23T13:30:21;0.75;;;0.30;;
76656;SDS011;65576;47.714;9.414;2024-03-23T13:32:46;0.30;;;0.30;;
76656;SDS011;65576;47.714;9.414;2024-03-23T13:35:12;0.17;;;0.10;;
76656;SDS011;65576;47.714;9.414;2024-03-23T13:37:37;1.75;;;0.47;;
76656;SDS011;65576;47.714;9.414;2024-03-23T13:40:02;0.30;;;0.30;;
76656;SDS011;65576;47.714;9.414;2024-03-23T13:42:28;0.45;;;0.45;;
76656;SDS011;65576;47.714;9.414;2024-03-23T13:44:53;1.63;;;0.43;;
76656;SDS011;65576;47.714;9.414;2024-03-23T13:47:18;0.32;;;0.28;;
76656;SDS011;65576;47.714;9.414;2024-03-23T13:49:44;0.15;;;0.13;;
76656;SDS011;65576;47.714;9.414;2024-03-23T13:52:09;0.40;;;0.32;;
76656;SDS011;65576;47.714;9.414;2024-03-23T13:54:34;0.38;;;0.38;;
76656;SDS011;65576;47.714;9.414;2024-03-23T13:57:00;0.28;;;0.20;;
76656;SDS011;65576;47.714;9.414;2024-03-23T13:59:25;0.10;;;0.10;;
76656;SDS011;65576;47.714;9.414;2024-03-23T14:01:51;1.83;;;0.35;;
76656;SDS011;65576;47.714;9.414;2024-03-23T14:04:16;2.67;;;0.47;;
76656;SDS011;65576;47.714;9.414;2024-03-23T14:06:42;2.22;;;0.45;;
76656;SDS011;65576;47.714;9.414;2024-03-23T14:09:10;0.20;;;0.20;;
76656;SDS011;65576;47.714;9.414;2024-03-23T14:11:36;2.00;;;0.57;;
76656;SDS011;65576;47.714;9.414;2024-03-23T14:14:05;1.50;;;0.40;;
76656;SDS011;65576;47.714;9.414;2024-03-23T14:16:31;0.60;;;0.60;;
76656;SDS011;65576;47.714;9.414;2024-03-23T14:18:56;1.00;;;0.47;;
76656;SDS011;65576;47.714;9.414;2024-03-23T14:21:22;1.02;;;0.50;;
76656;SDS011;65576;47.714;9.414;2024-03-23T14:23:47;0.68;;;0.43;;
76656;SDS011;65576;47.714;9.414;2024-03-23T14:26:12;0.57;;;0.57;;
76656;SDS011;65576;47.714;9.414;2024-03-23T14:28:38;0.70;;;0.50;;
76656;SDS011;65576;47.714;9.414;2024-03-23T14:31:03;2.42;;;0.65;;
76656;SDS011;65576;47.714;9.414;2024-03-23T14:33:35;2.03;;;0.75;;
76656;SDS011;65576;47.714;9.414;2024-03-23T14:36:00;0.25;;;0.25;;
76656;SDS011;65576;47.714;9.414;2024-03-23T14:38:26;0.75;;;0.60;;
76656;SDS011;65576;47.714;9.414;2024-03-23T14:40:51;0.30;;;0.25;;
76656;SDS011;65576;47.714;9.414;2024-03-23T14:43:17;0.38;;;0.32;;
76656;SDS011;65576;47.714;9.414;2024-03-23T14:46:16;0.57;;;0.43;;
76656;SDS011;65576;47.714;9.414;2024-03-23T14:48:36;1.77;;;0.45;;
76656;SDS011;65576;47.714;9.414;2024-03-23T14:51:01;1.00;;;0.30;;
76656;SDS011;65576;47.714;9.414;2024-03-23T14:53:31;0.20;;;0.20;;
76656;SDS011;65576;47.714;9.414;2024-03-23T14:55:57;5.20;;;0.75;;
76656;SDS011;65576;47.714;9.414;2024-03-23T14:58:22;2.67;;;0.80;;
76656;SDS011;65576;47.714;9.414;2024-03-23T15:00:48;2.58;;;0.98;;
76656;SDS011;65576;47.714;9.414;2024-03-23T15:03:14;1.48;;;0.43;;
76656;SDS011;65576;47.714;9.414;2024-03-23T15:05:39;1.08;;;0.80;;
76656;SDS011;65576;47.714;9.414;2024-03-23T15:08:05;0.40;;;0.35;;
76656;SDS011;65576;47.714;9.414;2024-03-23T15:10:32;1.80;;;0.90;;
76656;SDS011;65576;47.714;9.414;2024-03-23T15:12:58;0.38;;;0.30;;
76656;SDS011;65576;47.714;9.414;2024-03-23T15:15:23;1.27;;;0.80;;
76656;SDS011;65576;47.714;9.414;2024-03-23T15:17:48;2.08;;;0.40;;
76656;SDS011;65576;47.714;9.414;2024-03-23T15:20:15;0.15;;;0.15;;
76656;SDS011;65576;47.714;9.414;2024-03-23T15:22:40;0.63;;;0.57;;
76656;SDS011;65576;47.714;9.414;2024-03-23T15:25:06;0.32;;;0.32;;
76656;SDS011;65576;47.714;9.414;2024-03-23T15:27:33;0.60;;;0.22;;
76656;SDS011;65576;47.714;9.414;2024-03-23T15:29:58;0.30;;;0.30;;
76656;SDS011;65576;47.714;9.414;2024-03-23T15:32:23;2.40;;;0.82;;
76656;SDS011;65576;47.714;9.414;2024-03-23T15:34:49;0.68;;;0.43;;
76656;SDS011;65576;47.714;9.414;2024-03-23T15:37:14;1.80;;;0.93;;
76656;SDS011;65576;47.714;9.414;2024-03-23T15:39:40;1.42;;;0.60;;
76656;SDS011;65576;47.714;9.414;2024-03-23T15:42:06;0.30;;;0.30;;
76656;SDS011;65576;47.714;9.414;2024-03-23T15:44:32;10.02;;;0.50;;
76656;SDS011;65576;47.714;9.414;2024-03-23T15:46:57;0.10;;;0.10;;